Time;durP1;ratioP1;P1;durP2;ratioP2;P2;SDS_P1;SDS_P2;PMS_P1;PMS_P2;Temp;Humidity;BMP_temperature;BMP_pressure;BME280_temperature;BME280_humidity;BME280_pressure;Samples;Min_cycle;Max_cycle;Signal;HPM_P1;HPM_P2
2021/09/05 00:00:57;;;;;;;0.10;0.10;;;;;;;9.80;99.00;102362.72;10482485;28;20028;-61
2021/09/05 00:05:58;;;;;;;0.10;0.10;;;;;;;9.77;98.71;102373.59;10452916;28;20108;-62
2021/09/05 00:10:58;;;;;;;0.10;0.10;;;;;;;9.62;98.27;102364.13;10450787;28;20028;-61
2021/09/05 00:15:59;;;;;;;0.05;0.05;;;;;;;9.72;100.00;102367.78;10450375;28;20033;-62
2021/09/05 00:20:59;;;;;;;0.10;0.10;;;;;;;10.01;100.00;102362.91;10477986;28;20345;-62
2021/09/05 00:25:59;;;;;;;0.10;0.10;;;;;;;9.90;100.00;102365.53;10449868;28;20017;-62
2021/09/05 00:31:03;;;;;;;0.00;0.00;;;;;;;9.77;99.77;102367.44;10455089;28;20395;-61
2021/09/05 00:36:03;;;;;;;0.10;0.10;;;;;;;9.72;99.75;102365.13;10434259;28;20016;-62
2021/09/05 00:41:03;;;;;;;0.10;0.10;;;;;;;9.71;99.95;102374.91;10451049;28;20360;-62
2021/09/05 00:46:04;;;;;;;0.10;0.10;;;;;;;9.65;99.62;102379.84;10490317;28;20482;-61
2021/09/05 00:51:04;;;;;;;0.00;0.00;;;;;;;9.58;99.75;102383.94;10478885;28;20036;-62
2021/09/05 00:56:04;;;;;;;0.10;0.10;;;;;;;9.53;99.82;102386.94;10489213;28;20065;-62
2021/09/05 01:01:06;;;;;;;0.10;0.10;;;;;;;9.55;100.00;102398.31;10483966;28;20500;-61
2021/09/05 01:06:06;;;;;;;0.08;0.08;;;;;;;9.50;99.53;102388.00;10454393;28;20020;-62
2021/09/05 01:11:06;;;;;;;0.00;0.00;;;;;;;9.41;99.60;102393.16;10463721;28;20074;-62
2021/09/05 01:16:25;;;;;;;0.03;0.03;;;;;;;9.29;99.94;102397.56;10450242;28;20129;-62
2021/09/05 01:21:25;;;;;;;0.00;0.00;;;;;;;9.25;99.83;102402.28;10473693;28;20102;-62
2021/09/05 01:26:28;;;;;;;0.00;0.00;;;;;;;9.24;99.81;102408.53;10484597;28;20047;-62
2021/09/05 01:31:44;;;;;;;0.00;0.00;;;;;;;9.28;100.00;102404.72;10463004;28;20155;-61
2021/09/05 01:36:45;;;;;;;0.00;0.00;;;;;;;9.24;99.72;102415.66;10478517;28;20021;-62
2021/09/05 01:41:46;;;;;;;0.10;0.10;;;;;;;9.28;100.00;102411.84;10474912;28;20031;-61
2021/09/05 01:46:47;;;;;;;0.00;0.00;;;;;;;9.37;100.00;102416.47;10465969;28;20019;-62
2021/09/05 01:51:48;;;;;;;0.00;0.00;;;;;;;9.28;100.00;102411.84;10475206;28;20047;-62
2021/09/05 01:56:48;;;;;;;0.05;0.05;;;;;;;9.16;99.41;102410.06;10447034;28;20025;-62
2021/09/05 02:01:48;;;;;;;0.00;0.00;;;;;;;9.09;99.52;102411.47;10470655;28;20475;-62
2021/09/05 02:06:49;;;;;;;0.00;0.00;;;;;;;9.05;100.00;102413.50;10456998;28;20025;-62
2021/09/05 02:11:52;;;;;;;0.00;0.00;;;;;;;9.02;99.99;102417.22;10455226;28;20132;-61
2021/09/05 02:16:52;;;;;;;0.10;0.10;;;;;;;9.01;99.94;102420.81;10470879;28;20028;-62
2021/09/05 02:21:52;;;;;;;0.00;0.00;;;;;;;9.00;99.88;102424.47;10478423;28;20399;-61
2021/09/05 02:26:52;;;;;;;0.00;0.00;;;;;;;9.01;100.00;102431.47;10471452;28;20143;-62
2021/09/05 02:31:53;;;;;;;0.00;0.00;;;;;;;8.96;100.00;102428.31;10462749;28;20029;-62
2021/09/05 02:36:54;;;;;;;0.03;0.03;;;;;;;8.90;100.00;102431.41;10471587;28;20261;-62
2021/09/05 02:41:54;;;;;;;0.10;0.10;;;;;;;8.85;100.00;102428.22;10477913;28;20024;-62
2021/09/05 02:46:54;;;;;;;0.00;0.00;;;;;;;8.84;100.00;102427.38;10494549;28;20286;-63
2021/09/05 02:51:55;;;;;;;0.00;0.00;;;;;;;8.80;100.00;102423.22;10495945;28;20033;-63
2021/09/05 02:56:55;;;;;;;0.00;0.00;;;;;;;8.77;100.00;102425.25;10453542;28;20041;-63
2021/09/05 03:01:57;;;;;;;0.00;0.00;;;;;;;8.72;100.00;102428.22;10467914;28;20021;-63
2021/09/05 03:06:58;;;;;;;0.10;0.10;;;;;;;8.66;100.00;102436.63;10438081;28;20353;-63
2021/09/05 03:11:58;;;;;;;0.00;0.00;;;;;;;8.60;100.00;102423.75;10463782;28;20029;-63
2021/09/05 03:16:58;;;;;;;0.00;0.00;;;;;;;8.63;100.00;102430.69;10452640;28;20270;-63
2021/09/05 03:21:59;;;;;;;0.00;0.00;;;;;;;8.63;100.00;102425.38;10452776;28;20025;-62
2021/09/05 03:26:59;;;;;;;0.00;0.00;;;;;;;8.67;100.00;102424.19;10451849;28;20017;-63
2021/09/05 03:31:59;;;;;;;0.00;0.00;;;;;;;8.63;100.00;102428.03;10460891;28;20434;-63
2021/09/05 03:37:00;;;;;;;0.00;0.00;;;;;;;8.31;99.20;102420.44;10460465;28;20013;-63
2021/09/05 03:42:00;;;;;;;0.00;0.00;;;;;;;8.10;99.48;102425.41;10492923;28;20028;-63
2021/09/05 03:47:00;;;;;;;0.00;0.00;;;;;;;7.97;99.79;102422.75;10472781;28;20067;-63
2021/09/05 03:52:01;;;;;;;0.00;0.00;;;;;;;7.93;100.00;102429.19;10451338;28;20107;-63
2021/09/05 03:57:01;;;;;;;0.00;0.00;;;;;;;7.90;100.00;102421.44;10471432;28;20022;-63
2021/09/05 04:02:01;;;;;;;0.00;0.00;;;;;;;7.87;100.00;102433.09;10477323;28;20024;-63
2021/09/05 04:07:02;;;;;;;0.00;0.00;;;;;;;7.84;100.00;102430.66;10450207;28;20025;-62
2021/09/05 04:12:03;;;;;;;0.00;0.00;;;;;;;7.88;100.00;102426.88;10432289;28;20052;-63
2021/09/05 04:17:03;;;;;;;0.03;0.03;;;;;;;7.89;100.00;102425.91;10450664;28;20045;-63
2021/09/05 04:22:04;;;;;;;0.00;0.00;;;;;;;7.93;100.00;102430.03;10456032;28;20021;-63
2021/09/05 04:27:04;;;;;;;0.00;0.00;;;;;;;8.00;100.00;102429.63;10432388;28;20009;-63
2021/09/05 04:32:05;;;;;;;0.00;0.00;;;;;;;8.04;100.00;102432.00;10460847;28;20036;-62
2021/09/05 04:37:05;;;;;;;0.00;0.00;;;;;;;8.16;100.00;102438.28;10461969;28;20375;-63
2021/09/05 04:42:06;;;;;;;0.00;0.00;;;;;;;8.33;100.00;102437.13;10454049;28;20095;-63
2021/09/05 04:47:06;;;;;;;0.00;0.00;;;;;;;8.52;100.00;102442.91;10464728;28;20013;-63
2021/09/05 04:52:07;;;;;;;0.00;0.00;;;;;;;8.49;100.00;102443.09;10477646;28;20021;-63
2021/09/05 04:57:07;;;;;;;0.08;0.08;;;;;;;8.63;100.00;102449.28;10449562;28;20008;-63
2021/09/05 05:02:07;;;;;;;0.00;0.00;;;;;;;9.41;100.00;102451.69;10471043;28;20115;-63
2021/09/05 05:07:09;;;;;;;0.05;0.05;;;;;;;10.48;100.00;102456.13;10471782;28;20012;-63
2021/09/05 05:12:11;;;;;;;0.10;0.10;;;;;;;11.55;94.98;102452.91;10483154;28;20491;-63
2021/09/05 05:17:12;;;;;;;0.10;0.10;;;;;;;12.59;88.32;102454.81;10464139;28;20532;-61
2021/09/05 05:22:12;;;;;;;0.10;0.10;;;;;;;13.68;84.43;102455.88;10472665;28;20111;-62
2021/09/05 05:27:12;;;;;;;0.10;0.10;;;;;;;14.57;81.85;102454.81;10488160;28;20092;-62
2021/09/05 05:32:13;;;;;;;0.10;0.10;;;;;;;15.36;78.65;102451.66;10480884;28;20048;-62
2021/09/05 05:37:14;;;;;;;0.10;0.10;;;;;;;16.21;73.47;102458.34;10478790;28;20030;-62
2021/09/05 05:42:14;;;;;;;0.10;0.10;;;;;;;16.93;73.00;102461.69;10463390;28;20115;-62
2021/09/05 05:47:15;;;;;;;0.10;0.10;;;;;;;17.70;71.17;102458.84;10477701;28;20027;-63
2021/09/05 05:52:15;;;;;;;0.10;0.10;;;;;;;18.41;68.20;102468.13;10474044;28;20028;-63
2021/09/05 05:57:16;;;;;;;0.10;0.10;;;;;;;18.89;67.44;102462.84;10482268;28;20080;-62
2021/09/05 06:02:16;;;;;;;0.10;0.10;;;;;;;18.94;63.26;102464.00;10464449;28;20036;-62
2021/09/05 06:07:16;;;;;;;0.10;0.10;;;;;;;19.00;63.58;102468.69;10483196;28;20074;-62
2021/09/05 06:12:17;;;;;;;0.05;0.05;;;;;;;18.93;63.76;102462.28;10465423;28;20028;-62
2021/09/05 06:17:17;;;;;;;0.00;0.00;;;;;;;18.81;62.77;102463.69;10507623;22;20060;-65
2021/09/05 06:22:18;;;;;;;0.10;0.10;;;;;;;18.74;63.39;102460.00;10536384;28;20020;-64
2021/09/05 06:27:18;;;;;;;0.00;0.00;;;;;;;18.63;62.89;102469.28;10538027;28;20138;-64
2021/09/05 06:32:18;;;;;;;0.10;0.10;;;;;;;18.64;62.95;102479.06;10537624;28;20024;-64
2021/09/05 06:37:18;;;;;;;0.00;0.00;;;;;;;18.33;62.83;102473.56;10536987;28;20019;-63
2021/09/05 06:42:19;;;;;;;0.00;0.00;;;;;;;18.40;63.33;102476.41;10537093;28;20032;-66
2021/09/05 06:47:19;;;;;;;0.10;0.10;;;;;;;18.77;62.90;102471.31;10537350;28;20020;-64
2021/09/05 06:52:19;;;;;;;0.00;0.00;;;;;;;18.76;63.31;102477.72;10535917;28;20039;-64
2021/09/05 06:57:20;;;;;;;0.10;0.10;;;;;;;18.95;61.67;102489.97;10536570;28;20015;-62
2021/09/05 07:02:20;;;;;;;0.10;0.10;;;;;;;18.93;62.21;102485.75;10536311;28;20016;-64
2021/09/05 07:07:21;;;;;;;0.00;0.00;;;;;;;19.05;61.39;102486.22;10505154;28;20405;-64
2021/09/05 07:12:21;;;;;;;0.00;0.00;;;;;;;19.53;61.19;102487.00;10494146;28;20459;-65
2021/09/05 07:17:22;;;;;;;0.08;0.08;;;;;;;19.67;58.69;102480.88;10476322;28;20016;-65
2021/09/05 07:22:22;;;;;;;0.00;0.00;;;;;;;19.57;59.69;102486.44;10521638;28;20024;-65
2021/09/05 07:27:22;;;;;;;0.10;0.10;;;;;;;19.39;58.22;102492.13;10535437;28;20020;-65
2021/09/05 07:32:22;;;;;;;0.00;0.00;;;;;;;19.46;59.54;102489.59;10534860;28;20027;-64
2021/09/05 07:37:23;;;;;;;0.10;0.10;;;;;;;19.19;59.96;102497.13;10535173;28;20028;-64
2021/09/05 07:42:23;;;;;;;0.10;0.10;;;;;;;19.07;59.75;102492.28;10506120;28;20039;-64
2021/09/05 07:47:24;;;;;;;0.00;0.00;;;;;;;19.39;60.76;102494.84;10474889;28;20033;-64
2021/09/05 07:52:25;;;;;;;0.00;0.00;;;;;;;19.52;58.19;102488.00;10517724;28;20024;-63
2021/09/05 07:57:25;;;;;;;0.10;0.10;;;;;;;19.58;59.34;102496.25;10534207;28;20556;-63
2021/09/05 08:02:25;;;;;;;0.10;0.10;;;;;;;19.31;59.24;102500.28;10533947;28;20453;-62
2021/09/05 08:07:26;;;;;;;0.00;0.00;;;;;;;19.52;58.88;102499.69;10534615;28;20020;-63
2021/09/05 08:12:26;;;;;;;0.10;0.10;;;;;;;19.42;57.64;102496.34;10533242;28;20020;-63
2021/09/05 08:17:27;;;;;;;0.00;0.00;;;;;;;19.62;59.91;102496.75;10507470;28;20032;-63
2021/09/05 08:22:27;;;;;;;0.10;0.10;;;;;;;19.77;58.71;102508.50;10517447;28;20561;-61
2021/09/05 08:27:27;;;;;;;0.00;0.00;;;;;;;19.65;57.12;102509.94;10533284;28;20463;-61
2021/09/05 08:32:28;;;;;;;0.00;0.00;;;;;;;19.52;58.26;102509.63;10532793;28;20023;-61
2021/09/05 08:37:28;;;;;;;0.00;0.00;;;;;;;19.50;60.27;102528.75;10509302;28;20032;-62
2021/09/05 08:42:32;;;;;;;0.10;0.10;;;;;;;19.15;58.19;102520.13;10490921;28;20028;-63
2021/09/05 08:47:34;;;;;;;0.00;0.00;;;;;;;19.39;59.45;102516.44;10490954;28;20060;-62
2021/09/05 08:52:35;;;;;;;0.10;0.10;;;;;;;19.39;60.30;102527.25;10517911;28;20016;-63
2021/09/05 08:57:36;;;;;;;0.00;0.00;;;;;;;18.98;57.45;102524.72;10532271;28;20020;-61
2021/09/05 09:02:44;;;;;;;0.10;0.10;;;;;;;18.85;60.36;102526.28;10505232;28;20055;-63
2021/09/05 09:07:46;;;;;;;0.05;0.05;;;;;;;19.04;60.39;102525.06;10486638;28;20076;-62
2021/09/05 09:12:48;;;;;;;0.00;0.00;;;;;;;18.65;61.60;102529.34;10509090;28;20072;-63
2021/09/05 09:17:55;;;;;;;0.10;0.10;;;;;;;18.36;61.49;102531.72;10495706;28;20021;-63
2021/09/05 09:23:17;;;;;;;0.10;0.10;;;;;;;18.64;64.35;102526.78;10512724;28;20100;-61
2021/09/05 09:28:28;;;;;;;0.07;0.07;;;;;;;18.71;59.93;102528.66;10526480;28;20596;-61
2021/09/05 09:33:29;;;;;;;0.10;0.10;;;;;;;18.73;60.22;102526.66;10530760;28;20382;-64
2021/09/05 09:38:29;;;;;;;0.00;0.00;;;;;;;18.65;60.55;102523.09;10531394;28;20024;-62
2021/09/05 09:43:29;;;;;;;0.10;0.10;;;;;;;18.34;61.12;102521.09;10523742;28;20032;-62
2021/09/05 09:48:30;;;;;;;0.10;0.10;;;;;;;18.43;60.74;102517.38;10526520;28;20020;-63
2021/09/05 09:53:30;;;;;;;0.10;0.10;;;;;;;18.72;62.71;102519.53;10521795;28;20065;-63
2021/09/05 09:58:30;;;;;;;0.10;0.10;;;;;;;19.22;61.85;102512.13;10529849;28;20111;-63
2021/09/05 10:03:32;;;;;;;0.10;0.10;;;;;;;19.06;59.65;102504.13;10530369;28;20024;-63
2021/09/05 10:08:34;;;;;;;0.03;0.03;;;;;;;19.10;60.04;102505.44;10527536;28;20367;-63
2021/09/05 10:13:37;;;;;;;0.00;0.00;;;;;;;19.24;60.56;102512.81;10538788;28;20286;-61
2021/09/05 10:18:40;;;;;;;0.00;0.00;;;;;;;19.00;60.34;102511.06;10538066;28;20051;-63
2021/09/05 10:23:55;;;;;;;0.00;0.00;;;;;;;19.11;60.33;102505.28;10534135;28;20126;-61
2021/09/05 10:28:57;;;;;;;0.10;0.10;;;;;;;19.21;58.61;102505.91;10537463;28;20020;-63
2021/09/05 10:33:59;;;;;;;0.10;0.10;;;;;;;19.27;61.07;102500.81;10522298;28;20024;-64
2021/09/05 10:39:08;;;;;;;0.10;0.10;;;;;;;19.35;60.58;102501.63;10534469;28;20299;-61
2021/09/05 10:44:09;;;;;;;0.00;0.00;;;;;;;19.29;58.21;102499.63;10536848;28;20474;-63
2021/09/05 10:49:10;;;;;;;0.00;0.00;;;;;;;19.44;58.49;102487.03;10535021;28;20016;-64
2021/09/05 10:54:12;;;;;;;0.00;0.00;;;;;;;19.49;60.84;102485.66;10532794;28;20051;-63
2021/09/05 10:59:19;;;;;;;0.00;0.00;;;;;;;19.48;60.56;102475.88;10534053;28;20012;-64
2021/09/05 11:04:21;;;;;;;0.00;0.00;;;;;;;19.67;61.49;102486.28;10517079;28;20032;-63
2021/09/05 11:14:37;;;;;;;0.10;0.10;;;;;;;20.01;59.99;102485.00;10486068;28;20471;-65
2021/09/05 11:19:44;;;;;;;0.00;0.00;;;;;;;19.87;59.75;102495.59;10530457;28;20023;-62
2021/09/05 11:24:45;;;;;;;0.00;0.00;;;;;;;19.85;59.51;102492.22;10516801;28;20023;-63
2021/09/05 11:29:46;;;;;;;0.10;0.10;;;;;;;20.05;60.61;102486.34;10529786;28;20024;-64
2021/09/05 11:34:56;;;;;;;0.10;0.10;;;;;;;20.02;60.80;102486.69;10534460;28;20024;-64
2021/09/05 11:40:03;;;;;;;0.00;0.00;;;;;;;20.28;57.58;102481.72;10534554;28;20027;-63
2021/09/05 11:45:09;;;;;;;0.00;0.00;;;;;;;20.20;56.34;102483.66;10534171;28;20024;-62
2021/09/05 11:50:12;;;;;;;0.00;0.00;;;;;;;20.02;57.07;102479.41;10532794;28;20028;-63
2021/09/05 11:55:15;;;;;;;0.10;0.10;;;;;;;19.93;56.70;102479.69;10519196;28;20024;-63
2021/09/05 12:00:39;;;;;;;0.10;0.10;;;;;;;20.15;56.99;102483.38;10492096;28;20028;-64
2021/09/05 12:05:40;;;;;;;0.10;0.10;;;;;;;19.68;57.96;102477.97;10532148;28;20028;-63
2021/09/05 12:10:44;;;;;;;0.00;0.00;;;;;;;19.55;60.72;102485.81;10533450;28;20048;-62
2021/09/05 12:15:47;;;;;;;0.00;0.00;;;;;;;19.63;59.43;102491.16;10515275;28;20031;-63
2021/09/05 12:20:56;;;;;;;0.10;0.10;;;;;;;19.81;59.25;102487.34;10531015;28;20098;-64
2021/09/05 12:26:01;;;;;;;0.00;0.00;;;;;;;20.01;58.29;102482.28;10531293;28;20337;-63
2021/09/05 12:31:04;;;;;;;0.10;0.10;;;;;;;19.73;59.31;102482.00;10524947;28;20016;-64
2021/09/05 12:36:04;;;;;;;0.10;0.10;;;;;;;19.33;59.81;102487.44;10531562;28;20493;-63
2021/09/05 12:41:13;;;;;;;0.00;0.00;;;;;;;19.04;59.13;102489.94;10532352;28;20107;-64
2021/09/05 12:46:15;;;;;;;0.00;0.00;;;;;;;18.89;60.09;102485.25;10532577;28;20020;-63
2021/09/05 12:51:18;;;;;;;0.00;0.00;;;;;;;19.08;62.07;102481.34;10517927;28;20077;-63
2021/09/05 12:56:18;;;;;;;0.10;0.10;;;;;;;19.61;60.72;102471.56;10475970;28;20020;-63
2021/09/05 13:01:20;;;;;;;0.00;0.00;;;;;;;19.88;59.10;102470.22;10490366;28;20047;-64
2021/09/05 13:06:22;;;;;;;0.00;0.00;;;;;;;19.85;56.46;102461.63;10489754;28;20016;-62
2021/09/05 13:11:25;;;;;;;0.10;0.10;;;;;;;19.96;58.80;102455.81;10493932;28;20026;-64
2021/09/05 13:16:26;;;;;;;0.00;0.00;;;;;;;20.13;58.18;102451.09;10531249;28;20024;-64
2021/09/05 13:21:27;;;;;;;0.00;0.00;;;;;;;20.03;56.69;102454.03;10528690;28;20386;-64
2021/09/05 13:26:27;;;;;;;0.10;0.10;;;;;;;19.97;55.63;102452.06;10530851;28;20446;-64
2021/09/05 13:31:30;;;;;;;0.10;0.10;;;;;;;19.97;54.45;102451.25;10489815;28;20028;-63
2021/09/05 13:36:30;;;;;;;0.05;0.05;;;;;;;19.95;54.49;102442.44;10528591;28;20024;-62
2021/09/05 13:41:31;;;;;;;0.00;0.00;;;;;;;19.96;56.63;102444.16;10513199;28;20593;-62
2021/09/05 13:46:31;;;;;;;0.00;0.00;;;;;;;20.01;57.07;102433.59;10535858;28;20043;-63
2021/09/05 13:51:31;;;;;;;0.00;0.00;;;;;;;20.00;56.06;102429.22;10537186;28;20016;-64
2021/09/05 13:56:32;;;;;;;0.00;0.00;;;;;;;20.05;56.66;102416.00;10538377;28;20012;-65
2021/09/05 14:01:32;;;;;;;0.00;0.00;;;;;;;20.01;54.83;102412.84;10538617;28;20028;-64
2021/09/05 14:06:33;;;;;;;0.03;0.03;;;;;;;20.10;56.61;102418.97;10538003;28;20023;-63
2021/09/05 14:11:33;;;;;;;0.03;0.03;;;;;;;20.15;56.92;102413.88;10538248;28;20020;-63
2021/09/05 14:16:33;;;;;;;0.00;0.00;;;;;;;20.13;55.57;102408.66;10537523;28;20020;-63
2021/09/05 14:21:34;;;;;;;0.00;0.00;;;;;;;20.15;58.11;102407.63;10535506;28;20072;-64
2021/09/05 14:26:34;;;;;;;0.00;0.00;;;;;;;20.14;56.13;102414.91;10534245;28;20028;-63
2021/09/05 14:48:05;;;;;;;0.00;0.00;;;;;;;19.78;59.50;102412.88;10495115;28;20028;-63
2021/09/05 14:58:23;;;;;;;0.10;0.10;;;;;;;19.76;62.37;102397.84;10535403;28;20475;-63
2021/09/05 15:13:43;;;;;;;0.10;0.10;;;;;;;19.49;61.62;102412.69;10534965;28;20029;-64
2021/09/05 15:18:43;;;;;;;0.00;0.00;;;;;;;19.41;63.33;102410.91;10518287;28;20418;-64
2021/09/05 15:23:48;;;;;;;0.00;0.00;;;;;;;19.35;63.61;102400.81;10532447;28;20047;-64
2021/09/05 15:28:59;;;;;;;0.10;0.10;;;;;;;19.27;61.17;102388.19;10534966;28;20028;-64
2021/09/05 15:35:06;;;;;;;0.00;0.00;;;;;;;19.20;63.00;102398.88;10534756;28;20024;-64
2021/09/05 15:54:50;;;;;;;0.00;0.00;;;;;;;18.94;60.29;102396.50;10522253;28;20040;-63
2021/09/05 16:00:03;;;;;;;0.10;0.10;;;;;;;18.89;59.97;102389.94;10491992;28;20017;-63
2021/09/05 16:20:54;;;;;;;0.10;0.10;;;;;;;18.66;59.28;102393.38;10470905;28;20020;-62
2021/09/05 16:25:54;;;;;;;0.10;0.10;;;;;;;18.63;60.23;102388.31;10490825;28;20462;-62
2021/09/05 16:30:55;;;;;;;0.00;0.00;;;;;;;18.62;59.43;102394.75;10489822;28;20039;-61
2021/09/05 16:41:14;;;;;;;0.10;0.10;;;;;;;18.69;58.68;102395.72;10488871;28;20395;-62
2021/09/05 16:46:14;;;;;;;0.00;0.00;;;;;;;18.69;60.31;102400.28;10489769;28;20016;-62
2021/09/05 16:51:15;;;;;;;0.03;0.03;;;;;;;18.70;58.92;102393.84;10482418;28;20517;-63
2021/09/05 16:56:15;;;;;;;0.10;0.10;;;;;;;18.80;58.70;102402.63;10460161;28;20017;-63
2021/09/05 17:01:15;;;;;;;0.00;0.00;;;;;;;18.91;58.92;102407.66;10490963;28;20024;-62
2021/09/05 17:06:17;;;;;;;0.00;0.00;;;;;;;18.95;58.08;102400.88;10490177;28;20302;-62
2021/09/05 17:11:17;;;;;;;0.10;0.10;;;;;;;19.00;60.87;102409.28;10487939;28;20040;-62
2021/09/05 17:16:18;;;;;;;0.00;0.00;;;;;;;18.99;62.31;102409.44;10490056;28;20023;-62
2021/09/05 17:21:21;;;;;;;0.00;0.00;;;;;;;18.92;62.72;102420.13;10437946;28;20630;-63
2021/09/05 17:26:21;;;;;;;0.00;0.00;;;;;;;18.82;63.76;102416.81;10438819;28;20021;-63
2021/09/05 17:31:22;;;;;;;0.00;0.00;;;;;;;18.71;65.69;102425.25;10457399;28;20025;-63
2021/09/05 17:36:22;;;;;;;0.10;0.10;;;;;;;18.58;63.84;102431.16;10480404;28;20391;-63
2021/09/05 17:41:22;;;;;;;0.00;0.00;;;;;;;18.46;68.11;102443.34;10493195;28;20552;-63
2021/09/05 17:46:23;;;;;;;0.00;0.00;;;;;;;18.29;70.16;102442.53;10469312;28;20025;-63
2021/09/05 17:51:23;;;;;;;0.10;0.10;;;;;;;18.14;69.94;102436.16;10456506;28;20029;-63
2021/09/05 17:56:23;;;;;;;0.00;0.00;;;;;;;17.97;71.26;102438.00;10455924;28;20031;-63
2021/09/05 18:01:24;;;;;;;0.00;0.00;;;;;;;17.73;73.01;102445.03;10456157;28;20400;-63
2021/09/05 18:06:24;;;;;;;0.00;0.00;;;;;;;17.58;73.22;102439.47;10455940;28;20458;-63
2021/09/05 18:11:24;;;;;;;0.10;0.10;;;;;;;17.43;74.15;102454.59;10473289;28;20107;-63
2021/09/05 18:16:25;;;;;;;0.10;0.10;;;;;;;17.32;75.12;102455.75;10496099;28;20021;-63
2021/09/05 18:21:25;;;;;;;0.10;0.10;;;;;;;17.20;75.53;102459.75;10496442;28;20103;-61
2021/09/05 18:26:25;;;;;;;0.00;0.00;;;;;;;17.11;76.06;102472.34;10504545;28;20298;-62
2021/09/05 18:31:26;;;;;;;0.00;0.00;;;;;;;17.01;76.13;102468.91;10482212;28;20020;-62
2021/09/05 18:36:26;;;;;;;0.10;0.10;;;;;;;16.90;76.67;102483.53;10467056;28;20024;-62
2021/09/05 18:41:27;;;;;;;0.10;0.10;;;;;;;16.74;76.97;102486.94;10485411;28;20274;-62
2021/09/05 18:46:27;;;;;;;0.10;0.10;;;;;;;16.52;77.59;102490.13;10461281;28;20037;-62
2021/09/05 18:51:27;;;;;;;0.00;0.00;;;;;;;16.26;78.44;102493.69;10484484;28;20025;-62
2021/09/05 18:56:27;;;;;;;0.10;0.10;;;;;;;16.08;78.93;102492.84;10491253;28;20387;-60
2021/09/05 19:01:28;;;;;;;0.10;0.10;;;;;;;15.87;79.65;102492.31;10456460;28;20028;-62
2021/09/05 19:06:28;;;;;;;0.10;0.10;;;;;;;15.69;79.79;102495.00;10466960;28;20083;-61
2021/09/05 19:11:28;;;;;;;0.10;0.10;;;;;;;15.53;80.63;102499.19;10478111;28;20033;-60
2021/09/05 19:16:29;;;;;;;0.10;0.10;;;;;;;15.37;80.54;102494.44;10493788;28;20494;-62
2021/09/05 19:21:29;;;;;;;0.10;0.10;;;;;;;15.26;81.82;102496.50;10481141;28;20021;-62
2021/09/05 19:26:29;;;;;;;0.10;0.10;;;;;;;15.19;82.00;102504.31;10457981;28;20638;-62
2021/09/05 19:31:30;;;;;;;0.07;0.07;;;;;;;15.05;82.19;102508.31;10492911;28;20031;-61
2021/09/05 19:36:31;;;;;;;0.10;0.10;;;;;;;14.87;82.73;102504.72;10486710;28;20015;-62
2021/09/05 19:41:31;;;;;;;0.10;0.10;;;;;;;14.71;83.99;102516.03;10477939;28;20013;-61
2021/09/05 19:46:31;;;;;;;0.10;0.10;;;;;;;14.53;83.91;102512.44;10475713;28;20074;-61
2021/09/05 19:51:31;;;;;;;0.10;0.10;;;;;;;14.24;83.34;102513.28;10464036;28;20434;-62
2021/09/05 19:56:32;;;;;;;0.08;0.08;;;;;;;13.89;85.24;102520.03;10451361;28;20472;-61
2021/09/05 20:01:33;;;;;;;0.10;0.10;;;;;;;13.68;85.46;102516.63;10480877;28;20417;-62
2021/09/05 20:06:34;;;;;;;0.10;0.10;;;;;;;13.41;87.25;102517.25;10490470;28;20054;-61
2021/09/05 20:11:34;;;;;;;0.10;0.10;;;;;;;13.29;87.02;102522.75;10459135;28;20032;-60
2021/09/05 20:16:34;;;;;;;0.10;0.10;;;;;;;13.20;88.22;102526.16;10464470;28;20017;-61
2021/09/05 20:21:35;;;;;;;0.10;0.10;;;;;;;13.21;89.17;102513.66;10453181;28;20033;-60
2021/09/05 20:26:35;;;;;;;0.10;0.10;;;;;;;13.14;89.44;102522.19;10455915;28;20114;-61
2021/09/05 20:31:37;;;;;;;0.10;0.10;;;;;;;13.03;88.99;102519.66;10450713;28;20738;-61
2021/09/05 20:36:37;;;;;;;0.10;0.10;;;;;;;12.86;89.26;102510.41;10478494;28;20071;-61
2021/09/05 20:41:37;;;;;;;0.10;0.10;;;;;;;12.69;89.35;102509.19;10463449;28;20063;-60
2021/09/05 20:46:38;;;;;;;0.10;0.10;;;;;;;12.55;89.30;102514.88;10449243;28;20476;-59
2021/09/05 20:51:41;;;;;;;0.03;0.03;;;;;;;12.41;89.44;102509.84;10448791;28;20033;-61
2021/09/05 20:56:41;;;;;;;0.10;0.10;;;;;;;12.24;89.55;102512.09;10432001;28;20021;-61
2021/09/05 21:01:41;;;;;;;0.10;0.10;;;;;;;12.11;90.27;102513.28;10450977;28;20029;-61
2021/09/05 21:06:42;;;;;;;0.10;0.10;;;;;;;12.04;91.53;102514.75;10482305;28;20016;-61
2021/09/05 21:11:42;;;;;;;0.03;0.03;;;;;;;11.91;91.17;102515.78;10533586;28;20024;-61
2021/09/05 21:16:42;;;;;;;0.00;0.00;;;;;;;11.81;91.51;102516.63;10533475;28;20022;-60
2021/09/05 21:21:43;;;;;;;0.10;0.10;;;;;;;11.68;91.70;102517.63;10533939;28;20026;-61
2021/09/05 21:26:43;;;;;;;0.10;0.10;;;;;;;11.55;91.82;102524.94;10533097;28;20101;-60
2021/09/05 21:31:43;;;;;;;0.10;0.10;;;;;;;11.47;92.71;102519.38;10533291;28;20027;-60
2021/09/05 21:36:44;;;;;;;0.10;0.10;;;;;;;11.44;93.13;102523.13;10516970;28;20025;-60
2021/09/05 21:41:44;;;;;;;0.10;0.10;;;;;;;11.46;94.21;102528.34;10533050;28;20057;-61
2021/09/05 21:46:44;;;;;;;0.00;0.00;;;;;;;11.43;93.83;102532.13;10532706;28;20024;-60
2021/09/05 21:51:44;;;;;;;0.07;0.07;;;;;;;11.38;93.73;102539.66;10533250;28;20027;-59
2021/09/05 21:56:45;;;;;;;0.10;0.10;;;;;;;11.32;93.93;102543.66;10532859;28;20360;-60
2021/09/05 22:01:45;;;;;;;0.10;0.10;;;;;;;11.30;94.54;102534.91;10533381;28;20031;-59
2021/09/05 22:06:46;;;;;;;0.10;0.10;;;;;;;11.25;94.52;102539.75;10515209;28;20024;-60
2021/09/05 22:11:46;;;;;;;0.00;0.00;;;;;;;11.14;93.45;102546.91;10498310;28;20389;-58
2021/09/05 22:16:47;;;;;;;0.10;0.10;;;;;;;11.03;93.91;102545.94;10498081;28;20386;-60
2021/09/05 22:21:47;;;;;;;0.15;0.15;;;;;;;10.91;95.03;102551.38;10498099;28;20028;-59
2021/09/05 22:26:47;;;;;;;0.10;0.10;;;;;;;10.90;95.65;102553.19;10497778;28;20376;-60
2021/09/05 22:31:48;;;;;;;0.10;0.10;;;;;;;10.91;96.16;102562.03;10497706;28;20634;-60
2021/09/05 22:36:49;;;;;;;0.10;0.10;;;;;;;10.80;95.60;102561.06;10496749;28;20025;-60
2021/09/05 22:41:49;;;;;;;0.00;0.00;;;;;;;10.73;95.39;102564.31;10497402;28;20024;-60
2021/09/05 22:46:49;;;;;;;0.10;0.10;;;;;;;10.73;96.29;102557.16;10497556;28;20074;-60
2021/09/05 22:51:50;;;;;;;0.10;0.10;;;;;;;10.78;97.00;102565.66;10498434;28;20035;-59
2021/09/05 22:56:50;;;;;;;0.10;0.10;;;;;;;10.92;96.85;102577.09;10496912;28;20262;-59
2021/09/05 23:01:50;;;;;;;0.10;0.10;;;;;;;10.54;93.91;102571.06;10496304;28;20266;-60
2021/09/05 23:06:51;;;;;;;0.10;0.10;;;;;;;10.45;95.98;102568.25;10500517;28;20025;-58
2021/09/05 23:11:51;;;;;;;0.10;0.10;;;;;;;10.41;95.58;102568.47;10478118;28;20769;-61
2021/09/05 23:16:51;;;;;;;0.10;0.10;;;;;;;10.31;96.06;102559.47;10494688;28;20327;-60
2021/09/05 23:21:52;;;;;;;0.10;0.10;;;;;;;10.33;96.89;102554.03;10477136;28;20024;-61
2021/09/05 23:26:52;;;;;;;0.10;0.10;;;;;;;10.29;96.96;102553.38;10493327;28;20475;-61
2021/09/05 23:31:52;;;;;;;0.10;0.10;;;;;;;10.30;97.28;102546.28;10458077;28;20029;-61
2021/09/05 23:36:52;;;;;;;0.10;0.10;;;;;;;10.17;96.01;102533.81;10472746;28;20040;-58
2021/09/05 23:41:53;;;;;;;0.10;0.10;;;;;;;10.05;95.83;102539.22;10485491;28;20021;-61
2021/09/05 23:46:53;;;;;;;0.00;0.00;;;;;;;9.86;93.73;102537.06;10455000;28;20028;-60
2021/09/05 23:51:53;;;;;;;0.00;0.00;;;;;;;9.53;92.40;102536.75;10465465;28;20051;-60
2021/09/05 23:56:54;;;;;;;0.10;0.10;;;;;;;9.26;93.38;102538.72;10468441;28;20020;-61
